Time;durP1;ratioP1;P1;durP2;ratioP2;P2;SDS_P1;SDS_P2;PMS_P1;PMS_P2;Temp;Humidity;BMP_temperature;BMP_pressure;BME280_temperature;BME280_humidity;BME280_pressure;Samples;Min_cycle;Max_cycle;Signal;HPM_P1;HPM_P2
2023/08/12 00:00:19;;;;;;;12.27;10.85;;;;;;;-145.63;49.50;38109.13;5030085;28;20029;-65
2023/08/12 00:02:46;;;;;;;12.07;10.98;;;;;;;-145.63;49.57;38091.53;5033748;28;20032;-64
2023/08/12 00:05:12;;;;;;;12.98;11.23;;;;;;;-145.63;49.67;38093.50;5043982;28;20116;-66
2023/08/12 00:07:42;;;;;;;12.98;11.48;;;;;;;-145.63;49.75;38056.34;5044251;28;20026;-63
2023/08/12 00:10:10;;;;;;;12.10;10.98;;;;;;;-145.63;50.19;38083.72;5044154;28;20191;-65
2023/08/12 00:12:37;;;;;;;11.73;10.07;;;;;;;-145.63;49.55;38066.13;5027630;28;20030;-66
2023/08/12 00:15:06;;;;;;;12.27;11.00;;;;;;;-145.63;49.95;38064.16;5024136;28;20068;-65
2023/08/12 00:17:32;;;;;;;12.45;10.93;;;;;;;-145.63;49.89;38085.66;5025657;28;20045;-65
2023/08/12 00:19:59;;;;;;;11.95;10.68;;;;;;;-145.63;49.87;38023.09;5027100;28;20034;-65
2023/08/12 00:22:25;;;;;;;12.02;10.82;;;;;;;-145.63;50.39;38120.88;5043638;28;20029;-65
2023/08/12 00:24:51;;;;;;;13.13;11.75;;;;;;;-145.63;50.49;38130.63;5025326;28;20064;-65
2023/08/12 00:27:17;;;;;;;17.17;9.93;;;;;;;-145.63;50.33;38089.56;5036466;28;20195;-66
2023/08/12 00:29:43;;;;;;;12.43;11.18;;;;;;;-145.63;50.26;38066.13;5034045;28;20052;-66
2023/08/12 00:32:09;;;;;;;13.07;10.82;;;;;;;-145.63;50.64;38113.03;5028128;28;20198;-66
2023/08/12 00:34:36;;;;;;;14.45;11.02;;;;;;;-145.63;50.73;38140.41;5043680;28;20040;-66
2023/08/12 00:37:01;;;;;;;12.05;10.85;;;;;;;-145.63;51.05;38124.78;5058885;28;20029;-67
2023/08/12 00:39:27;;;;;;;11.90;10.80;;;;;;;-145.63;51.04;38138.47;5043809;28;20277;-67
2023/08/12 00:41:53;;;;;;;14.00;11.23;;;;;;;-145.63;50.80;38152.16;5040084;28;20248;-68
2023/08/12 00:44:18;;;;;;;11.45;10.50;;;;;;;-145.63;50.91;38173.66;5043629;28;20025;-67
2023/08/12 00:46:44;;;;;;;11.98;10.77;;;;;;;-145.63;51.03;38169.75;5042859;28;20053;-67
2023/08/12 00:49:11;;;;;;;11.93;10.73;;;;;;;-145.63;50.95;38115.00;5023819;28;20218;-67
2023/08/12 00:51:41;;;;;;;15.85;11.48;;;;;;;-145.63;51.25;38183.44;5039667;28;20033;-66
2023/08/12 00:54:09;;;;;;;13.90;11.25;;;;;;;-145.63;50.94;38159.97;5030432;28;20298;-68
2023/08/12 00:56:35;;;;;;;13.02;11.50;;;;;;;-145.63;50.74;38185.38;5022495;28;20040;-67
2023/08/12 00:59:04;;;;;;;16.02;12.38;;;;;;;-145.63;50.74;38140.41;5026407;28;20025;-67
2023/08/12 01:01:30;;;;;;;12.65;11.48;;;;;;;-145.63;50.51;38118.91;5043406;28;20376;-68
2023/08/12 01:03:56;;;;;;;13.02;11.65;;;;;;;-145.63;50.26;38128.69;5023518;28;20054;-67
2023/08/12 01:06:23;;;;;;;11.95;10.82;;;;;;;-145.63;50.59;38138.47;5037372;28;20048;-68
2023/08/12 01:08:49;;;;;;;15.60;11.05;;;;;;;-145.63;50.22;38122.81;5033865;28;20026;-67
2023/08/12 01:11:38;;;;;;;11.95;10.85;;;;;;;-145.63;50.68;38238.16;5028003;28;20017;-66
2023/08/12 01:14:17;;;;;;;13.07;11.23;;;;;;;-145.63;50.74;38148.22;5040218;28;20034;-67
2023/08/12 01:16:49;;;;;;;13.30;11.90;;;;;;;-145.63;50.82;38015.28;5023756;28;20095;-67
2023/08/12 01:19:36;;;;;;;16.50;12.23;;;;;;;-145.63;51.23;38152.16;5043124;28;20096;-68
2023/08/12 01:22:04;;;;;;;13.27;11.88;;;;;;;-145.63;51.48;38185.38;5041903;28;20026;-67
2023/08/12 01:24:40;;;;;;;13.75;11.27;;;;;;;-145.63;51.24;38156.06;5028320;28;20196;-67
2023/08/12 01:27:07;;;;;;;11.82;10.68;;;;;;;-145.63;50.97;38165.84;5023263;28;20034;-67
2023/08/12 01:29:34;;;;;;;12.07;10.88;;;;;;;-145.63;51.12;38152.16;5025741;28;20037;-68
2023/08/12 01:32:31;;;;;;;13.88;12.43;;;;;;;-145.63;51.26;38150.19;5025315;28;20326;-67
2023/08/12 01:35:06;;;;;;;16.95;12.93;;;;;;;-145.63;51.46;38171.69;5041163;28;20045;-67
2023/08/12 01:37:35;;;;;;;15.80;12.25;;;;;;;-145.63;50.98;38183.44;5023183;28;20026;-68
2023/08/12 01:40:05;;;;;;;13.32;12.05;;;;;;;-145.63;51.22;38183.44;5041817;28;20029;-67
2023/08/12 01:42:34;;;;;;;14.43;12.20;;;;;;;-145.63;50.80;38152.16;5041859;28;20021;-67
2023/08/12 01:45:01;;;;;;;13.55;12.15;;;;;;;-145.63;50.89;38140.41;5046789;28;20084;-67
2023/08/12 01:47:32;;;;;;;13.17;11.87;;;;;;;-145.63;50.68;38154.09;5040563;28;20040;-68
2023/08/12 01:49:58;;;;;;;13.98;11.95;;;;;;;-145.63;50.85;38140.41;5028880;28;20057;-67
2023/08/12 01:52:24;;;;;;;13.20;11.70;;;;;;;-145.63;50.47;38183.44;5046697;28;20063;-67
2023/08/12 01:54:50;;;;;;;13.98;12.50;;;;;;;-145.63;50.38;38146.28;5029587;28;20318;-67
2023/08/12 01:57:15;;;;;;;13.45;12.15;;;;;;;-145.63;50.45;38191.25;5039398;28;20104;-66
2023/08/12 01:59:43;;;;;;;16.17;12.63;;;;;;;-145.63;51.47;38195.16;5038797;28;20315;-67
2023/08/12 02:02:09;;;;;;;15.52;12.00;;;;;;;-145.63;50.79;38163.88;5030004;28;20241;-67
2023/08/12 02:04:36;;;;;;;13.75;12.32;;;;;;;-145.63;51.73;38206.88;5045547;28;20046;-68
2023/08/12 02:07:02;;;;;;;14.25;12.68;;;;;;;-145.63;52.31;38163.88;5027885;28;20030;-68
2023/08/12 02:09:27;;;;;;;14.50;12.45;;;;;;;-145.63;52.08;38202.97;5040738;28;20064;-68
2023/08/12 02:11:53;;;;;;;14.73;12.73;;;;;;;-145.63;52.11;38208.84;5037101;28;20026;-68
2023/08/12 02:14:19;;;;;;;19.35;12.80;;;;;;;-145.63;51.40;38206.88;5026614;28;20070;-67
2023/08/12 02:16:45;;;;;;;14.25;12.68;;;;;;;-145.63;51.23;38269.47;5026507;28;20341;-67
2023/08/12 02:19:10;;;;;;;15.07;13.13;;;;;;;-145.63;50.88;38279.22;5046410;28;20041;-69
2023/08/12 02:21:36;;;;;;;13.85;12.45;;;;;;;-145.63;51.02;38197.13;5030950;28;20026;-68
2023/08/12 02:24:02;;;;;;;13.35;12.15;;;;;;;-145.63;51.01;38179.50;5036370;28;20029;-68
2023/08/12 02:26:27;;;;;;;14.80;12.52;;;;;;;-145.63;51.16;38202.97;5039133;28;20045;-67
2023/08/12 02:28:53;;;;;;;16.20;12.57;;;;;;;-145.63;50.71;38183.44;5026266;28;20027;-68
2023/08/12 02:31:19;;;;;;;13.80;12.50;;;;;;;-145.63;50.76;38232.31;5026446;28;20030;-68
2023/08/12 02:33:44;;;;;;;14.18;12.18;;;;;;;-145.63;51.04;38204.94;5042098;28;20032;-68
2023/08/12 02:36:10;;;;;;;14.77;13.27;;;;;;;-145.63;51.01;38236.22;5034645;28;20026;-67
2023/08/12 02:38:36;;;;;;;14.57;13.20;;;;;;;-145.63;51.08;38222.53;5028488;28;20196;-66
2023/08/12 02:41:01;;;;;;;16.38;13.13;;;;;;;-145.63;50.94;38244.03;5025751;28;20107;-67
2023/08/12 02:43:27;;;;;;;15.52;12.90;;;;;;;-145.63;51.16;38275.31;5028295;28;20036;-67
2023/08/12 02:45:53;;;;;;;14.38;12.88;;;;;;;-145.63;51.32;38236.22;5045924;28;20096;-68
2023/08/12 02:48:18;;;;;;;14.02;12.63;;;;;;;-145.63;51.32;38261.63;5041208;28;20315;-67
2023/08/12 02:50:44;;;;;;;13.75;12.40;;;;;;;-145.63;51.26;38234.25;5025856;28;20022;-69
2023/08/12 02:53:10;;;;;;;15.63;11.73;;;;;;;-145.63;51.45;38285.09;5024816;28;20080;-68
2023/08/12 02:55:37;;;;;;;13.57;11.77;;;;;;;-145.63;51.67;38281.19;5026086;28;20067;-66
2023/08/12 02:58:04;;;;;;;12.45;11.18;;;;;;;-145.63;51.25;38247.94;5044232;28;20029;-67
2023/08/12 03:00:29;;;;;;;13.63;12.23;;;;;;;-145.63;51.08;38246.00;5031612;28;20057;-67
2023/08/12 03:02:55;;;;;;;13.60;12.20;;;;;;;-145.63;51.14;38290.97;5033335;28;20017;-68
2023/08/12 03:05:22;;;;;;;12.18;10.95;;;;;;;-145.63;50.97;38304.66;5041308;28;20060;-68
2023/08/12 03:07:49;;;;;;;14.35;11.15;;;;;;;-145.63;50.95;38312.47;5025487;28;20061;-67
2023/08/12 03:10:15;;;;;;;14.00;12.25;;;;;;;-145.63;51.29;38320.28;5025622;28;20045;-67
2023/08/12 03:12:41;;;;;;;13.73;11.70;;;;;;;-145.63;51.40;38332.03;5040525;28;20021;-67
2023/08/12 03:15:07;;;;;;;12.52;11.18;;;;;;;-145.63;51.18;38337.88;5034831;28;20030;-68
2023/08/12 03:17:33;;;;;;;16.38;12.02;;;;;;;-145.63;51.02;38277.28;5031199;28;20029;-67
2023/08/12 03:19:59;;;;;;;12.55;11.35;;;;;;;-145.63;50.59;38300.75;5045112;28;20044;-67
2023/08/12 03:22:27;;;;;;;13.90;10.98;;;;;;;-145.63;50.36;38279.22;5043463;28;20136;-67
2023/08/12 03:24:53;;;;;;;12.90;11.48;;;;;;;-145.63;50.47;38275.31;5027717;28;20196;-67
2023/08/12 03:27:18;;;;;;;12.60;11.40;;;;;;;-145.63;50.02;38273.38;5037041;28;20028;-67
2023/08/12 03:29:44;;;;;;;12.50;11.30;;;;;;;-145.63;50.08;38290.97;5037544;28;20025;-66
2023/08/12 03:32:10;;;;;;;12.48;11.25;;;;;;;-145.63;50.32;38244.03;5027625;28;20022;-67
2023/08/12 03:34:35;;;;;;;14.00;12.60;;;;;;;-145.63;49.97;38226.44;5043897;28;20085;-68
2023/08/12 03:37:01;;;;;;;13.50;12.13;;;;;;;-145.63;49.83;38259.69;5040314;28;20032;-66
2023/08/12 03:39:26;;;;;;;13.32;11.60;;;;;;;-145.63;49.80;38253.81;5038123;28;20075;-66
2023/08/12 03:41:53;;;;;;;12.38;11.18;;;;;;;-145.63;49.74;38247.94;5039664;28;20029;-66
2023/08/12 03:44:18;;;;;;;14.18;11.38;;;;;;;-145.63;49.61;38247.94;5044659;28;20029;-67
2023/08/12 03:46:44;;;;;;;15.32;12.30;;;;;;;-145.63;49.57;38267.50;5044616;28;20316;-68
2023/08/12 03:49:10;;;;;;;14.68;11.95;;;;;;;-145.63;49.61;38263.59;5025737;28;20037;-67
2023/08/12 03:51:36;;;;;;;14.32;11.63;;;;;;;-145.63;49.56;38218.63;5039179;28;20021;-67
2023/08/12 03:54:01;;;;;;;12.20;10.93;;;;;;;-145.63;49.74;38292.91;5034941;28;20059;-67
2023/08/12 03:56:27;;;;;;;13.95;12.00;;;;;;;-145.63;49.83;38255.78;5029380;28;20029;-67
2023/08/12 03:58:53;;;;;;;13.02;11.68;;;;;;;-145.63;49.38;38273.38;5044524;28;20033;-67
2023/08/12 04:01:18;;;;;;;14.68;11.45;;;;;;;-145.63;49.90;38263.59;5044403;28;20036;-67
2023/08/12 04:03:44;;;;;;;12.65;11.25;;;;;;;-145.63;49.74;38273.38;5029033;28;20045;-66
2023/08/12 04:06:10;;;;;;;14.20;11.73;;;;;;;-145.63;49.84;38230.34;5026155;28;20368;-68
2023/08/12 04:08:35;;;;;;;12.70;11.38;;;;;;;-145.63;50.24;38259.69;5044311;28;20021;-67
2023/08/12 04:11:01;;;;;;;17.23;12.20;;;;;;;-145.63;50.01;38242.09;5043110;28;20341;-66
2023/08/12 04:13:27;;;;;;;13.13;11.57;;;;;;;-145.63;49.75;38253.81;5024479;28;20318;-66
2023/08/12 04:15:55;;;;;;;16.23;12.50;;;;;;;-145.63;49.91;38226.44;5040377;28;20021;-66
2023/08/12 04:18:21;;;;;;;16.02;13.15;;;;;;;-145.63;50.30;38285.09;5039381;28;20060;-66
2023/08/12 04:20:51;;;;;;;18.10;12.43;;;;;;;-145.63;50.30;38304.66;5031353;28;20037;-68
2023/08/12 04:23:18;;;;;;;14.00;12.05;;;;;;;-145.63;50.26;38281.19;5039724;28;20105;-68
2023/08/12 04:25:45;;;;;;;16.15;12.52;;;;;;;-145.63;50.04;38289.00;5024243;28;20032;-67
2023/08/12 04:28:11;;;;;;;13.27;11.75;;;;;;;-145.63;49.61;38234.25;5042712;28;20025;-67
2023/08/12 04:30:45;;;;;;;13.07;11.75;;;;;;;-145.63;49.20;38247.94;5029909;28;20093;-67
2023/08/12 04:33:10;;;;;;;13.65;12.07;;;;;;;-145.63;49.10;38222.53;5033060;28;20097;-68
2023/08/12 04:35:36;;;;;;;16.58;11.85;;;;;;;-145.63;49.13;38269.47;5038045;28;20030;-68
2023/08/12 04:38:03;;;;;;;13.50;12.13;;;;;;;-145.63;49.17;38214.72;5024758;28;20026;-67
2023/08/12 04:40:28;;;;;;;14.00;12.50;;;;;;;-145.63;48.89;38193.19;5040737;28;20040;-67
2023/08/12 04:42:54;;;;;;;18.30;11.60;;;;;;;-145.63;49.25;38273.38;5040103;28;20210;-67
2023/08/12 04:45:20;;;;;;;12.70;10.77;;;;;;;-145.63;49.10;38199.06;5043547;28;20021;-67
2023/08/12 04:47:45;;;;;;;15.25;12.18;;;;;;;-145.63;49.09;38224.47;5036356;28;20033;-67
2023/08/12 04:50:11;;;;;;;13.73;11.65;;;;;;;-145.63;49.34;38220.56;5024531;28;20048;-67
2023/08/12 04:52:37;;;;;;;14.43;12.15;;;;;;;-145.63;49.17;38302.69;5043581;28;20104;-66
2023/08/12 04:55:03;;;;;;;12.63;11.32;;;;;;;-145.63;49.40;38312.47;5026214;28;20211;-67
2023/08/12 04:57:29;;;;;;;13.00;11.80;;;;;;;-145.63;49.00;38246.00;5036670;28;20032;-68
2023/08/12 04:59:55;;;;;;;13.00;11.40;;;;;;;-145.63;48.43;38238.16;5035176;28;20053;-67
2023/08/12 05:02:21;;;;;;;14.55;11.85;;;;;;;-145.63;48.65;38240.13;5026889;28;20032;-68
2023/08/12 05:04:51;;;;;;;13.50;12.18;;;;;;;-145.63;48.35;38246.00;5043752;28;20105;-67
2023/08/12 05:07:17;;;;;;;16.23;12.55;;;;;;;-145.63;48.61;38218.63;5024244;28;20041;-68
2023/08/12 05:09:44;;;;;;;14.25;12.32;;;;;;;-145.63;48.78;38289.00;5037527;28;20025;-68
2023/08/12 05:12:11;;;;;;;13.93;11.70;;;;;;;-145.63;49.10;38314.44;5033145;28;20045;-68
2023/08/12 05:14:37;;;;;;;14.27;11.73;;;;;;;-145.63;49.29;38253.81;5027648;28;20056;-67
2023/08/12 05:17:03;;;;;;;16.20;12.95;;;;;;;-145.63;48.98;38234.25;5042651;28;20033;-67
2023/08/12 05:19:28;;;;;;;14.15;12.40;;;;;;;-145.63;49.00;38224.47;5043231;28;20096;-66
2023/08/12 05:21:54;;;;;;;12.68;11.35;;;;;;;-145.63;47.53;38322.25;5027042;28;20026;-67
2023/08/12 05:24:20;;;;;;;17.77;11.73;;;;;;;-145.63;48.69;38287.06;5033144;28;20030;-67
2023/08/12 05:26:47;;;;;;;17.10;12.93;;;;;;;-145.63;49.53;38292.91;5036148;28;20342;-67
2023/08/12 05:29:12;;;;;;;14.00;12.57;;;;;;;-145.63;50.03;38335.94;5023274;28;20030;-66
2023/08/12 05:31:38;;;;;;;14.13;12.75;;;;;;;-145.63;50.07;38320.28;5023107;28;20057;-66
2023/08/12 05:34:04;;;;;;;13.35;11.95;;;;;;;-145.63;50.43;38361.34;5039167;28;20025;-66
2023/08/12 05:36:30;;;;;;;19.52;11.85;;;;;;;-145.63;50.05;38308.56;5030602;28;20026;-66
2023/08/12 05:38:55;;;;;;;13.30;11.90;;;;;;;-145.63;50.81;38345.72;5031046;28;20044;-68
2023/08/12 05:41:21;;;;;;;15.02;13.05;;;;;;;-145.63;51.08;38308.56;5036854;28;20025;-66
2023/08/12 05:43:48;;;;;;;14.32;12.93;;;;;;;-145.63;51.22;38351.56;5042829;28;20329;-67
2023/08/12 05:46:13;;;;;;;15.73;12.63;;;;;;;-145.63;51.33;38287.06;5042828;28;20033;-67
2023/08/12 05:48:39;;;;;;;14.02;12.40;;;;;;;-145.63;50.94;38290.97;5041658;28;20056;-67
2023/08/12 05:51:05;;;;;;;14.00;12.32;;;;;;;-145.63;51.47;38328.13;5034129;28;20026;-66
2023/08/12 05:53:32;;;;;;;14.05;12.65;;;;;;;-145.63;51.20;38298.78;5027350;28;20025;-66
2023/08/12 05:55:57;;;;;;;14.98;11.88;;;;;;;-145.63;50.70;38337.88;5042735;28;20036;-68
2023/08/12 05:58:23;;;;;;;15.50;13.70;;;;;;;-145.63;51.32;38347.66;5023362;28;20097;-68
2023/08/12 06:00:49;;;;;;;15.27;12.15;;;;;;;-145.63;51.19;38316.38;5037809;28;20028;-68
2023/08/12 06:03:14;;;;;;;13.82;12.18;;;;;;;-145.63;50.51;38290.97;5032544;28;20045;-68
2023/08/12 06:05:41;;;;;;;13.02;11.55;;;;;;;-145.63;50.45;38349.63;5026982;28;20037;-68
2023/08/12 06:08:06;;;;;;;12.98;11.60;;;;;;;-145.63;50.70;38312.47;5041002;28;20029;-67
2023/08/12 06:10:33;;;;;;;15.82;12.35;;;;;;;-145.63;50.97;38330.06;5023155;28;20025;-67
2023/08/12 06:12:59;;;;;;;14.82;12.35;;;;;;;-145.63;51.18;38355.50;5038848;28;20052;-67
2023/08/12 06:15:25;;;;;;;13.55;11.18;;;;;;;-145.63;50.22;38324.19;5031090;28;20022;-67
2023/08/12 06:17:50;;;;;;;13.13;11.80;;;;;;;-145.63;50.26;38310.50;5028189;28;20025;-66
2023/08/12 06:20:16;;;;;;;16.40;12.00;;;;;;;-145.63;50.55;38316.38;5040633;28;20051;-67
2023/08/12 06:22:42;;;;;;;16.60;12.45;;;;;;;-145.63;50.19;38308.56;5022648;28;20072;-67
2023/08/12 06:25:08;;;;;;;14.85;13.25;;;;;;;-145.63;50.37;38326.16;5039692;28;20033;-68
2023/08/12 06:27:33;;;;;;;15.10;11.63;;;;;;;-145.63;49.77;38343.75;5030295;28;20036;-69
2023/08/12 06:29:59;;;;;;;12.38;11.05;;;;;;;-145.63;49.41;38328.13;5024682;28;20036;-67
2023/08/12 06:32:25;;;;;;;14.50;11.00;;;;;;;-145.63;49.46;38322.25;5029186;28;20021;-68
2023/08/12 06:34:51;;;;;;;14.90;11.18;;;;;;;-145.63;49.60;38298.78;5046233;28;20029;-68
2023/08/12 06:37:16;;;;;;;12.70;11.50;;;;;;;-145.63;49.21;38304.66;5031627;28;20025;-68
2023/08/12 06:39:42;;;;;;;13.27;12.07;;;;;;;-145.63;49.18;38269.47;5041154;28;20049;-67
2023/08/12 06:42:08;;;;;;;12.57;10.73;;;;;;;-145.63;48.22;38296.81;5039241;28;20030;-68
2023/08/12 06:44:33;;;;;;;12.25;10.45;;;;;;;-145.63;47.97;38236.22;5046037;28;20314;-67
2023/08/12 06:46:59;;;;;;;11.95;10.32;;;;;;;-145.63;47.62;38244.03;5045790;28;20298;-67
2023/08/12 06:49:25;;;;;;;11.70;10.55;;;;;;;-145.63;47.30;38179.50;5026587;28;20250;-67
2023/08/12 06:51:50;;;;;;;12.60;10.77;;;;;;;-145.63;46.69;38197.13;5040445;28;20183;-68
2023/08/12 06:54:16;;;;;;;12.48;11.18;;;;;;;-145.63;46.48;38257.72;5051014;28;20029;-68
2023/08/12 06:56:42;;;;;;;16.08;11.57;;;;;;;-145.63;46.65;38208.84;5045645;28;20029;-67
2023/08/12 06:59:07;;;;;;;12.63;10.80;;;;;;;-145.63;46.50;38191.25;5045678;28;20025;-67
2023/08/12 07:01:33;;;;;;;11.13;10.02;;;;;;;-145.63;46.66;38210.81;5045719;28;20029;-67
2023/08/12 07:03:59;;;;;;;13.10;10.52;;;;;;;-145.63;46.88;38189.28;5029923;28;20054;-67
2023/08/12 07:06:24;;;;;;;14.82;10.93;;;;;;;-145.63;46.63;38171.69;5036438;28;20041;-68
2023/08/12 07:08:50;;;;;;;11.95;10.30;;;;;;;-145.63;46.01;38136.50;5039325;28;20041;-67
2023/08/12 07:11:16;;;;;;;11.65;10.45;;;;;;;-145.63;46.31;38132.59;5027095;28;20022;-67
2023/08/12 07:13:42;;;;;;;12.13;10.40;;;;;;;-145.63;45.41;38038.75;5045474;28;20309;-67
2023/08/12 07:16:08;;;;;;;13.98;10.50;;;;;;;-145.63;45.29;38148.22;5028404;28;20047;-66
2023/08/12 07:18:34;;;;;;;11.95;10.68;;;;;;;-145.63;45.68;38109.13;5037533;28;20318;-67
2023/08/12 07:20:59;;;;;;;16.70;10.15;;;;;;;-145.63;45.09;38042.66;5037815;28;20021;-67
2023/08/12 07:23:25;;;;;;;12.63;9.80;;;;;;;-145.63;43.89;37788.50;5028018;28;20045;-67
2023/08/12 07:25:51;;;;;;;13.18;9.60;;;;;;;-145.63;43.72;38048.53;5044671;28;20021;-66
2023/08/12 07:28:17;;;;;;;12.45;9.55;;;;;;;-145.63;43.65;37989.88;5027037;28;20033;-67
2023/08/12 07:30:42;;;;;;;13.38;9.90;;;;;;;-145.63;43.07;38017.25;5024965;28;20022;-68
2023/08/12 07:33:08;;;;;;;11.07;9.88;;;;;;;-145.63;43.25;38023.09;5024623;28;20064;-67
2023/08/12 07:35:34;;;;;;;11.10;10.00;;;;;;;-145.63;42.83;37987.91;5028254;28;20021;-68
2023/08/12 07:37:59;;;;;;;13.20;11.32;;;;;;;-145.63;43.26;37991.81;5044148;28;20038;-68
2023/08/12 07:40:26;;;;;;;11.77;10.55;;;;;;;-145.63;43.35;37952.72;5026586;28;20021;-67
2023/08/12 07:42:51;;;;;;;15.23;10.52;;;;;;;-145.63;43.31;37991.81;5030421;28;20353;-68
2023/08/12 07:45:17;;;;;;;15.93;9.95;;;;;;;-145.63;42.94;37989.88;5041850;28;20025;-67
2023/08/12 07:47:43;;;;;;;15.38;10.73;;;;;;;-145.63;42.94;37954.69;5043992;28;20026;-68
2023/08/12 07:50:10;;;;;;;15.50;11.02;;;;;;;-145.63;42.87;37982.03;5044346;28;20025;-68
2023/08/12 07:52:36;;;;;;;13.05;10.68;;;;;;;-145.63;42.94;37964.44;5024777;28;20042;-67
2023/08/12 07:55:02;;;;;;;11.98;10.45;;;;;;;-145.63;43.09;38023.09;5040178;28;20032;-66
2023/08/12 07:57:29;;;;;;;13.95;10.55;;;;;;;-145.63;43.11;38007.47;5044528;28;20017;-66
2023/08/12 07:59:54;;;;;;;14.85;12.23;;;;;;;-145.63;43.34;37944.91;5038118;28;20242;-67
2023/08/12 08:02:20;;;;;;;15.13;11.18;;;;;;;-145.63;43.23;37954.69;5024801;28;20052;-67
2023/08/12 08:04:48;;;;;;;13.35;11.27;;;;;;;-145.63;43.45;37827.59;5024959;28;20088;-67
2023/08/12 08:07:16;;;;;;;11.80;10.60;;;;;;;-145.63;43.82;38077.84;5041760;28;20088;-67
2023/08/12 08:09:42;;;;;;;14.05;11.18;;;;;;;-145.63;44.42;38034.84;5042908;28;20036;-67
2023/08/12 08:12:09;;;;;;;13.20;11.73;;;;;;;-145.63;44.84;38042.66;5036083;28;20030;-68
2023/08/12 08:14:35;;;;;;;14.73;10.88;;;;;;;-145.63;44.82;38054.38;5024460;28;20033;-67
2023/08/12 08:17:00;;;;;;;13.25;11.73;;;;;;;-145.63;45.37;38081.75;5023062;28;20037;-66
2023/08/12 08:19:26;;;;;;;15.23;11.35;;;;;;;-145.63;45.49;38113.03;5043030;28;20032;-69
2023/08/12 08:21:52;;;;;;;14.75;11.30;;;;;;;-145.63;46.21;38097.41;5029825;28;20064;-67
2023/08/12 08:24:17;;;;;;;13.75;11.30;;;;;;;-145.63;46.74;38093.50;5032965;28;20025;-67
2023/08/12 08:26:45;;;;;;;18.48;12.00;;;;;;;-145.63;46.94;38070.03;5039277;28;20025;-67
2023/08/12 08:29:11;;;;;;;17.13;12.35;;;;;;;-145.63;47.26;38109.13;5024316;28;20089;-67
2023/08/12 08:31:37;;;;;;;17.13;12.13;;;;;;;-145.63;46.93;38075.91;5024357;28;20357;-67
2023/08/12 08:34:02;;;;;;;14.43;12.10;;;;;;;-145.63;47.28;38128.69;5039331;28;20079;-68
2023/08/12 08:36:28;;;;;;;15.18;12.50;;;;;;;-145.63;47.98;38120.88;5033020;28;20033;-68
2023/08/12 08:38:54;;;;;;;13.48;11.70;;;;;;;-145.63;47.72;38159.97;5029988;28;20029;-66
2023/08/12 08:41:21;;;;;;;14.68;11.80;;;;;;;-145.63;47.52;38165.84;5039418;28;20029;-67
2023/08/12 08:43:48;;;;;;;13.38;11.98;;;;;;;-145.63;47.72;38154.09;5028647;28;20025;-65
2023/08/12 08:46:16;;;;;;;16.40;12.70;;;;;;;-145.63;47.55;38165.84;5043692;28;20320;-66
2023/08/12 08:48:43;;;;;;;17.38;12.00;;;;;;;-145.63;47.48;38132.59;5030735;28;20088;-66
2023/08/12 08:51:12;;;;;;;13.45;12.05;;;;;;;-145.63;47.28;38005.50;5030622;28;20029;-66
2023/08/12 08:53:38;;;;;;;15.73;12.07;;;;;;;-145.63;47.70;38077.84;5042604;28;20056;-67
2023/08/12 08:56:11;;;;;;;13.40;12.02;;;;;;;-145.63;47.88;38113.03;5043633;28;20282;-67
2023/08/12 08:58:38;;;;;;;13.18;11.90;;;;;;;-145.63;47.88;37806.09;5043412;28;20029;-65
2023/08/12 09:01:06;;;;;;;14.73;12.95;;;;;;;-145.63;47.83;38089.56;5038953;28;20101;-64
2023/08/12 09:03:33;;;;;;;15.32;12.48;;;;;;;-145.63;49.06;38120.88;5023192;28;20095;-65
2023/08/12 09:05:59;;;;;;;16.83;12.85;;;;;;;-145.63;47.95;38120.88;5028961;28;20045;-65
2023/08/12 09:08:27;;;;;;;14.70;12.68;;;;;;;-145.63;47.00;38167.78;5041179;28;20025;-65
2023/08/12 09:10:54;;;;;;;13.50;12.10;;;;;;;-145.63;47.46;38159.97;5023343;28;20064;-65
2023/08/12 09:13:20;;;;;;;13.80;12.35;;;;;;;-145.63;46.95;38156.06;5040468;28;20321;-65
2023/08/12 09:15:45;;;;;;;13.10;11.40;;;;;;;-145.63;47.30;38171.69;5041615;28;20048;-65
2023/08/12 09:18:12;;;;;;;17.05;11.55;;;;;;;-145.63;47.47;38173.66;5034992;28;20026;-65
2023/08/12 09:20:37;;;;;;;13.05;11.82;;;;;;;-145.63;47.48;38206.88;5026520;28;20029;-65
2023/08/12 09:23:03;;;;;;;16.90;12.55;;;;;;;-145.63;47.32;38185.38;5043290;28;20068;-66
2023/08/12 09:25:30;;;;;;;13.85;11.88;;;;;;;-145.63;47.34;38199.06;5024535;28;20030;-63
2023/08/12 09:27:59;;;;;;;13.50;12.10;;;;;;;-145.63;47.85;38265.53;5036767;28;20017;-65
2023/08/12 09:30:29;;;;;;;13.32;11.77;;;;;;;-145.63;47.89;38255.78;5033283;28;20025;-65
2023/08/12 09:33:00;;;;;;;14.18;12.68;;;;;;;-145.63;47.74;38238.16;5028463;28;20033;-65
2023/08/12 09:35:36;;;;;;;13.20;12.00;;;;;;;-145.63;48.57;38271.41;5041532;28;20084;-65
2023/08/12 09:38:07;;;;;;;14.93;13.30;;;;;;;-145.63;48.79;38234.25;5022997;28;20042;-65
2023/08/12 09:40:34;;;;;;;15.95;12.80;;;;;;;-145.63;48.96;38287.06;5039459;28;20026;-66
2023/08/12 09:43:01;;;;;;;14.32;12.85;;;;;;;-145.63;49.10;38281.19;5037519;28;20044;-66
2023/08/12 09:45:27;;;;;;;15.15;13.65;;;;;;;-145.63;49.44;38234.25;5042724;28;20033;-65
2023/08/12 09:47:54;;;;;;;14.45;12.93;;;;;;;-145.63;49.69;38292.91;5037706;28;20302;-66
2023/08/12 09:50:23;;;;;;;15.82;13.20;;;;;;;-145.63;50.03;38263.59;5023370;28;20044;-64
2023/08/12 09:52:51;;;;;;;14.98;12.60;;;;;;;-145.63;49.50;38308.56;5042545;28;20364;-64
2023/08/12 09:55:18;;;;;;;15.50;12.88;;;;;;;-145.63;49.69;38255.78;5026200;28;20322;-65
2023/08/12 09:57:49;;;;;;;15.13;13.52;;;;;;;-145.63;49.95;38300.75;5034584;28;20047;-65
2023/08/12 10:00:18;;;;;;;15.15;13.05;;;;;;;-145.63;49.54;38261.63;5034829;28;20033;-64
2023/08/12 10:02:45;;;;;;;15.18;12.50;;;;;;;-145.63;49.53;38318.34;5027975;28;20025;-65
2023/08/12 10:05:30;;;;;;;13.90;12.52;;;;;;;-145.63;50.25;38353.53;5046851;28;20048;-66
2023/08/12 10:07:56;;;;;;;14.93;13.32;;;;;;;-145.63;49.86;38300.75;5026838;28;20034;-65
2023/08/12 10:10:24;;;;;;;18.17;13.95;;;;;;;-145.63;50.35;38261.63;5043475;28;20025;-65
2023/08/12 10:12:51;;;;;;;29.83;21.55;;;;;;;-145.63;50.57;38281.19;5033675;28;20089;-65
2023/08/12 10:15:17;;;;;;;18.30;13.52;;;;;;;-145.63;50.33;38322.25;5034949;28;20029;-66
2023/08/12 10:17:44;;;;;;;17.38;14.95;;;;;;;-145.63;50.88;38283.16;5042702;28;20030;-65
2023/08/12 10:20:19;;;;;;;18.63;14.43;;;;;;;-145.63;50.80;38363.31;5026693;28;20021;-66
2023/08/12 10:22:46;;;;;;;15.98;14.15;;;;;;;-145.63;51.34;38335.94;5026810;28;20026;-65
2023/08/12 10:25:14;;;;;;;23.30;19.20;;;;;;;-145.63;51.89;38347.66;5037785;28;20038;-65
2023/08/12 10:27:39;;;;;;;19.05;14.95;;;;;;;-145.63;51.40;38308.56;5026123;28;20049;-66
2023/08/12 10:30:07;;;;;;;16.77;15.07;;;;;;;-145.63;52.33;38382.88;5025968;28;20034;-67
2023/08/12 10:32:34;;;;;;;16.35;14.60;;;;;;;-145.63;51.99;38355.50;5028156;28;20029;-65
2023/08/12 10:35:00;;;;;;;16.40;14.43;;;;;;;-145.63;52.31;38320.28;5046108;28;20093;-65
2023/08/12 10:37:27;;;;;;;17.80;15.27;;;;;;;-145.63;53.01;38363.31;5028578;28;20057;-65
2023/08/12 10:39:54;;;;;;;16.40;14.73;;;;;;;-145.63;52.38;38351.56;5038616;28;20357;-65
2023/08/12 10:42:49;;;;;;;16.23;14.40;;;;;;;-145.63;52.52;38310.50;5037003;28;20088;-65
2023/08/12 10:45:16;;;;;;;17.48;15.68;;;;;;;-145.63;52.57;38351.56;5045694;28;20033;-64
2023/08/12 10:47:48;;;;;;;19.13;16.45;;;;;;;-145.63;52.48;38333.97;5042564;28;20036;-65
2023/08/12 10:50:18;;;;;;;;;;;;;;;-145.63;52.34;38300.75;5026133;28;20156;-64
2023/08/12 10:52:45;;;;;;;19.02;14.80;;;;;;;-145.63;52.38;38285.09;5045340;28;20075;-64
2023/08/12 10:55:24;;;;;;;15.80;14.25;;;;;;;-145.63;52.29;38296.81;5030288;28;20057;-65
2023/08/12 10:57:52;;;;;;;22.48;17.77;;;;;;;-145.63;52.65;38265.53;5038280;28;20314;-65
2023/08/12 11:00:23;;;;;;;16.75;14.82;;;;;;;-145.63;52.70;38294.88;5037481;28;20303;-66